Time;durP1;ratioP1;P1;durP2;ratioP2;P2;SDS_P1;SDS_P2;PMS_P1;PMS_P2;Temp;Humidity;BMP_temperature;BMP_pressure;BME280_temperature;BME280_humidity;BME280_pressure;Samples;Min_cycle;Max_cycle;Signal;HPM_P1;HPM_P2
2021/08/03 00:01:15;;;;;;;7.73;6.93;;;15.90;99.90;;;;;;5101644;28;20461;-78
2021/08/03 00:03:54;;;;;;;8.20;7.50;;;15.90;99.90;;;;;;5097106;28;20490;-79
2021/08/03 00:06:24;;;;;;;7.57;6.97;;;15.90;99.90;;;;;;5096527;28;20466;-79
2021/08/03 00:08:57;;;;;;;6.93;6.33;;;15.90;99.90;;;;;;5100944;28;20461;-80
2021/08/03 00:11:26;;;;;;;6.73;6.17;;;15.90;99.90;;;;;;5101493;28;20944;-80
2021/08/03 00:13:53;;;;;;;6.80;6.30;;;15.80;99.90;;;;;;5104025;28;20535;-79
2021/08/03 00:16:21;;;;;;;7.43;6.73;;;15.80;99.90;;;;;;5102174;28;20552;-79
2021/08/03 00:18:49;;;;;;;7.40;6.80;;;15.80;99.90;;;;;;5104241;27;20773;-80
2021/08/03 00:21:16;;;;;;;8.47;6.83;;;15.80;99.90;;;;;;5102066;28;20868;-79
2021/08/03 00:23:46;;;;;;;7.30;6.60;;;15.80;99.90;;;;;;5101706;28;20453;-79
2021/08/03 00:26:15;;;;;;;7.53;6.93;;;15.80;99.90;;;;;;5098639;28;20464;-79
2021/08/03 00:28:46;;;;;;;9.97;7.30;;;15.90;99.90;;;;;;5096060;28;20471;-78
2021/08/03 00:31:16;;;;;;;6.67;6.07;;;15.90;99.90;;;;;;5098033;28;20838;-81
2021/08/03 00:33:46;;;;;;;7.27;6.70;;;15.90;99.90;;;;;;5092826;28;21086;-81
2021/08/03 00:36:13;;;;;;;7.60;6.90;;;15.90;99.90;;;;;;5095605;28;20485;-80
2021/08/03 00:38:40;;;;;;;7.80;7.10;;;15.90;99.90;;;;;;5098475;28;20484;-79
2021/08/03 00:41:12;;;;;;;9.90;7.43;;;15.80;99.90;;;;;;5098832;28;20555;-79
2021/08/03 00:43:39;;;;;;;8.53;7.50;;;15.90;99.90;;;;;;5100953;28;20450;-79
2021/08/03 00:46:07;;;;;;;7.23;6.63;;;15.90;99.90;;;;;;5101464;28;20943;-79
2021/08/03 00:48:34;;;;;;;7.30;6.70;;;15.90;99.90;;;;;;5092018;28;20492;-79
2021/08/03 00:51:01;;;;;;;8.00;7.30;;;15.90;99.90;;;;;;5100611;28;20832;-79
2021/08/03 00:53:30;;;;;;;8.70;7.30;;;15.90;99.90;;;;;;5103201;28;20463;-80
2021/08/03 00:55:57;;;;;;;7.50;6.90;;;16.00;99.90;;;;;;5101061;28;20507;-80
2021/08/03 00:58:24;;;;;;;8.00;7.20;;;16.00;99.90;;;;;;5097932;28;20458;-79
2021/08/03 01:00:53;;;;;;;7.57;6.87;;;16.00;99.90;;;;;;5101381;28;20996;-79
2021/08/03 01:03:21;;;;;;;7.50;6.80;;;16.10;99.90;;;;;;5094618;28;20474;-80
2021/08/03 01:06:01;;;;;;;8.90;7.50;;;16.10;99.90;;;;;;5104829;28;20457;-79
2021/08/03 01:08:39;;;;;;;7.70;6.50;;;16.00;99.90;;;;;;5097055;28;20458;-79
2021/08/03 01:11:10;;;;;;;8.17;7.47;;;16.10;99.90;;;;;;5097518;28;20474;-79
2021/08/03 01:13:44;;;;;;;7.33;6.63;;;16.00;99.90;;;;;;5098240;28;20453;-81
2021/08/03 01:16:20;;;;;;;8.23;6.53;;;16.00;99.90;;;;;;5099340;28;20453;-80
2021/08/03 01:18:55;;;;;;;8.33;7.60;;;15.90;99.90;;;;;;5100405;28;20448;-79
2021/08/03 01:21:42;;;;;;;9.40;8.50;;;16.00;99.90;;;;;;5093652;28;20461;-79
2021/08/03 01:24:48;;;;;;;13.33;6.90;;;15.90;99.90;;;;;;5094140;28;20945;-80
2021/08/03 01:27:26;;;;;;;8.60;7.57;;;16.00;99.90;;;;;;5097894;28;20456;-79
2021/08/03 01:29:57;;;;;;;7.90;7.27;;;16.00;99.90;;;;;;5097533;28;20469;-79
2021/08/03 01:32:26;;;;;;;8.90;7.10;;;16.00;99.90;;;;;;5099984;28;20488;-81
2021/08/03 01:34:55;;;;;;;8.50;7.63;;;16.00;99.90;;;;;;5104538;28;20461;-79
2021/08/03 01:37:25;;;;;;;8.93;7.93;;;16.00;99.90;;;;;;5098999;28;20457;-79
2021/08/03 01:39:55;;;;;;;7.73;7.03;;;16.00;99.90;;;;;;5097397;28;20481;-78
2021/08/03 01:42:23;;;;;;;8.10;6.80;;;16.00;99.90;;;;;;5101513;28;20508;-79
2021/08/03 01:44:53;;;;;;;8.83;7.07;;;16.10;99.90;;;;;;5099819;28;20456;-79
2021/08/03 01:47:25;;;;;;;15.80;7.63;;;16.10;99.90;;;;;;5095617;28;20918;-79
2021/08/03 01:49:54;;;;;;;10.73;7.60;;;16.20;99.90;;;;;;5098441;28;20449;-80
2021/08/03 01:52:22;;;;;;;10.80;7.50;;;16.20;99.90;;;;;;5101633;28;20485;-79
2021/08/03 01:54:51;;;;;;;9.77;7.00;;;16.20;99.90;;;;;;5099701;28;20449;-79
2021/08/03 01:57:19;;;;;;;9.07;7.13;;;16.20;99.90;;;;;;5095883;28;20479;-80
2021/08/03 01:59:47;;;;;;;10.57;8.07;;;16.30;99.90;;;;;;5098774;28;20491;-79
2021/08/03 02:02:17;;;;;;;11.90;8.43;;;16.20;99.90;;;;;;5103705;28;20457;-78
2021/08/03 02:04:46;;;;;;;8.27;7.47;;;16.30;99.90;;;;;;5098745;28;20464;-79
2021/08/03 02:07:15;;;;;;;17.40;7.40;;;16.30;99.90;;;;;;5099242;28;20462;-80
2021/08/03 02:09:43;;;;;;;10.60;7.20;;;16.30;99.90;;;;;;5102405;28;20458;-80
2021/08/03 02:12:10;;;;;;;17.60;8.77;;;16.40;99.90;;;;;;5090802;28;20536;-78
2021/08/03 02:14:44;;;;;;;18.53;8.03;;;16.40;99.90;;;;;;5102209;28;20457;-80
2021/08/03 02:17:15;;;;;;;8.77;7.10;;;16.40;99.90;;;;;;5097491;28;20546;-79
2021/08/03 02:19:42;;;;;;;15.97;7.90;;;16.40;99.90;;;;;;5100384;28;20477;-79
2021/08/03 02:22:11;;;;;;;11.13;8.07;;;16.40;99.90;;;;;;5095916;28;20458;-79
2021/08/03 02:24:38;;;;;;;6.40;5.80;;;16.40;99.90;;;;;;5104295;28;20470;-80
2021/08/03 02:27:05;;;;;;;14.37;8.50;;;16.40;99.90;;;;;;5106879;28;20458;-80
2021/08/03 02:29:33;;;;;;;10.50;8.27;;;16.40;99.90;;;;;;5096504;28;20462;-80
2021/08/03 02:32:04;;;;;;;11.77;7.90;;;16.40;99.90;;;;;;5098803;28;20492;-80
2021/08/03 02:34:42;;;;;;;15.70;8.37;;;16.40;99.90;;;;;;5102150;28;20499;-80
2021/08/03 02:37:16;;;;;;;13.33;8.03;;;16.50;99.90;;;;;;5103691;28;20464;-81
2021/08/03 02:39:45;;;;;;;17.77;9.40;;;16.50;99.90;;;;;;5104138;28;21023;-79
2021/08/03 02:42:12;;;;;;;15.00;8.07;;;16.50;99.90;;;;;;5106707;28;20800;-80
2021/08/03 02:44:45;;;;;;;13.17;8.87;;;16.50;99.90;;;;;;5103163;28;20457;-79
2021/08/03 02:47:20;;;;;;;13.27;7.70;;;16.50;99.90;;;;;;5106264;28;20507;-81
2021/08/03 02:49:49;;;;;;;12.10;7.33;;;16.50;99.90;;;;;;5104722;28;20557;-79
2021/08/03 02:52:19;;;;;;;10.57;7.87;;;16.40;99.90;;;;;;5097627;28;21466;-79
2021/08/03 02:54:51;;;;;;;12.23;7.13;;;16.40;99.90;;;;;;5101543;28;20464;-79
2021/08/03 02:57:20;;;;;;;12.43;7.80;;;16.40;99.90;;;;;;5105933;28;20459;-79
2021/08/03 02:59:51;;;;;;;13.17;7.43;;;16.40;99.90;;;;;;5102033;28;20557;-81
2021/08/03 03:02:19;;;;;;;15.60;9.20;;;16.40;99.90;;;;;;5098835;28;20510;-80
2021/08/03 03:04:54;;;;;;;23.97;9.63;;;16.40;99.90;;;;;;5103343;28;20473;-79
2021/08/03 03:07:29;;;;;;;14.93;9.53;;;16.40;99.90;;;;;;5099036;28;20461;-81
2021/08/03 03:09:57;;;;;;;22.07;9.40;;;16.40;99.90;;;;;;5105169;28;20454;-80
2021/08/03 03:12:27;;;;;;;20.23;9.50;;;16.40;99.90;;;;;;5100798;28;20498;-80
2021/08/03 03:14:58;;;;;;;17.77;9.00;;;16.40;99.90;;;;;;5107054;28;20920;-79
2021/08/03 03:17:31;;;;;;;17.60;9.43;;;16.40;99.90;;;;;;5102789;28;20462;-81
2021/08/03 03:20:00;;;;;;;19.90;8.00;;;16.40;99.90;;;;;;5102380;28;20449;-80
2021/08/03 03:22:29;;;;;;;19.07;10.20;;;16.40;99.90;;;;;;5101082;28;20468;-79
2021/08/03 03:24:57;;;;;;;8.77;7.87;;;16.40;99.90;;;;;;5103571;28;20468;-79
2021/08/03 03:27:25;;;;;;;14.10;8.17;;;16.50;99.90;;;;;;5102203;28;20458;-79
2021/08/03 03:29:53;;;;;;;12.87;8.83;;;16.40;99.90;;;;;;5104828;28;20450;-80
2021/08/03 03:32:21;;;;;;;12.83;9.73;;;16.50;99.90;;;;;;5108382;28;20484;-79
2021/08/03 03:34:51;;;;;;;17.03;10.00;;;16.50;99.90;;;;;;5102201;28;20792;-79
2021/08/03 03:37:18;;;;;;;15.20;9.07;;;16.50;99.90;;;;;;5098122;28;20459;-78
2021/08/03 03:39:48;;;;;;;19.47;9.80;;;16.50;99.90;;;;;;5102283;28;20512;-79
2021/08/03 03:42:17;;;;;;;13.07;10.10;;;16.50;99.90;;;;;;5103765;28;21330;-78
2021/08/03 03:44:44;;;;;;;14.73;9.47;;;16.50;99.90;;;;;;5102937;28;20467;-78
2021/08/03 03:47:18;;;;;;;10.97;8.27;;;16.50;99.90;;;;;;5106077;28;20464;-80
2021/08/03 03:49:47;;;;;;;13.73;8.90;;;16.50;99.90;;;;;;5103251;28;20474;-79
2021/08/03 03:52:19;;;;;;;13.50;9.87;;;16.50;99.90;;;;;;5101889;28;20485;-79
2021/08/03 03:54:50;;;;;;;17.40;9.47;;;16.50;99.90;;;;;;5101636;28;20879;-79
2021/08/03 03:57:21;;;;;;;14.93;9.03;;;16.50;99.90;;;;;;5102064;28;20465;-79
2021/08/03 03:59:51;;;;;;;11.30;9.10;;;16.50;99.90;;;;;;5100382;28;20460;-82
2021/08/03 04:02:21;;;;;;;11.80;9.37;;;16.50;99.90;;;;;;5100336;28;20452;-80
2021/08/03 04:04:48;;;;;;;15.47;9.30;;;16.50;99.90;;;;;;5098636;28;20480;-79
2021/08/03 04:07:15;;;;;;;18.93;9.37;;;16.50;99.90;;;;;;5102377;28;20478;-82
2021/08/03 04:09:42;;;;;;;11.33;9.90;;;16.50;99.90;;;;;;5099600;28;20476;-79
2021/08/03 04:12:11;;;;;;;16.13;10.87;;;16.50;99.90;;;;;;5101697;28;20821;-81
2021/08/03 04:14:42;;;;;;;11.10;10.00;;;16.50;99.90;;;;;;5105225;28;20551;-79
2021/08/03 04:17:10;;;;;;;12.07;9.70;;;16.50;99.90;;;;;;5102691;28;20496;-78
2021/08/03 04:19:36;;;;;;;17.70;10.00;;;16.50;99.90;;;;;;5103997;28;20449;-78
2021/08/03 04:22:04;;;;;;;15.17;9.13;;;16.50;99.90;;;;;;5104574;28;20467;-79
2021/08/03 04:24:31;;;;;;;12.43;10.57;;;16.50;99.90;;;;;;5099310;28;20454;-79
2021/08/03 04:26:58;;;;;;;12.10;9.30;;;16.50;99.90;;;;;;5107046;28;20987;-79
2021/08/03 04:29:26;;;;;;;11.27;9.40;;;16.50;99.90;;;;;;5100894;28;20465;-82
2021/08/03 04:31:53;;;;;;;12.17;10.97;;;16.50;99.90;;;;;;5104608;28;20472;-82
2021/08/03 04:34:20;;;;;;;12.80;10.50;;;16.50;99.90;;;;;;5101168;28;20449;-81
2021/08/03 04:36:48;;;;;;;12.20;10.40;;;16.60;99.90;;;;;;5102855;28;20963;-81
2021/08/03 04:39:16;;;;;;;10.77;9.77;;;16.60;99.90;;;;;;5101199;28;20481;-79
2021/08/03 04:41:43;;;;;;;12.70;11.40;;;16.60;99.90;;;;;;5101885;28;20453;-80
2021/08/03 04:44:11;;;;;;;12.60;11.30;;;16.70;99.90;;;;;;5100368;28;20469;-80
2021/08/03 04:46:41;;;;;;;13.07;10.60;;;16.70;99.90;;;;;;5098081;28;20465;-80
2021/08/03 04:49:08;;;;;;;14.00;11.67;;;16.70;99.90;;;;;;5092833;28;20488;-81
2021/08/03 04:51:37;;;;;;;15.90;10.90;;;16.70;99.90;;;;;;5096577;28;20466;-81
2021/08/03 04:54:04;;;;;;;13.67;11.33;;;16.70;99.90;;;;;;5099486;28;20465;-80
2021/08/03 04:56:33;;;;;;;12.53;10.67;;;16.80;99.90;;;;;;5099712;28;20457;-82
2021/08/03 04:59:00;;;;;;;11.63;10.50;;;16.80;99.90;;;;;;5099149;28;20530;-79
2021/08/03 05:01:27;;;;;;;13.80;11.10;;;16.80;99.90;;;;;;5100306;28;20473;-80
2021/08/03 05:03:56;;;;;;;14.33;11.90;;;16.80;99.90;;;;;;5099926;28;21113;-79
2021/08/03 05:06:23;;;;;;;13.00;11.77;;;16.80;99.90;;;;;;5096649;28;20462;-83
2021/08/03 05:08:51;;;;;;;13.13;11.63;;;16.80;99.90;;;;;;5103034;28;20470;-79
2021/08/03 05:11:18;;;;;;;12.43;11.10;;;16.90;99.90;;;;;;5099292;28;20503;-79
2021/08/03 05:13:45;;;;;;;15.10;11.47;;;16.90;99.90;;;;;;5099689;28;20930;-80
2021/08/03 05:16:12;;;;;;;15.17;11.10;;;16.90;99.90;;;;;;5096859;28;20458;-80
2021/08/03 05:18:40;;;;;;;13.73;12.20;;;16.90;99.90;;;;;;5093140;28;20466;-79
2021/08/03 05:21:08;;;;;;;14.60;11.93;;;17.00;99.90;;;;;;5105326;28;20465;-80
2021/08/03 05:23:36;;;;;;;13.90;12.43;;;17.00;99.90;;;;;;5105800;28;20804;-80
2021/08/03 05:26:04;;;;;;;12.57;11.27;;;17.00;99.90;;;;;;5100876;28;20450;-80
2021/08/03 05:28:31;;;;;;;14.90;13.40;;;17.00;99.90;;;;;;5095771;28;20450;-80
2021/08/03 05:30:58;;;;;;;13.50;12.10;;;17.00;99.90;;;;;;5093434;28;20469;-81
2021/08/03 05:33:24;;;;;;;12.57;11.17;;;17.10;99.90;;;;;;5102615;28;20479;-79
2021/08/03 05:35:51;;;;;;;14.70;12.10;;;17.10;99.90;;;;;;5099695;28;20454;-79
2021/08/03 05:38:21;;;;;;;13.97;12.47;;;17.10;99.90;;;;;;5098355;28;20753;-81
2021/08/03 05:40:48;;;;;;;13.40;11.80;;;17.10;99.90;;;;;;5061760;28;20506;-79
2021/08/03 05:43:15;;;;;;;13.63;12.30;;;17.10;99.90;;;;;;5058926;28;20467;-80
2021/08/03 05:45:45;;;;;;;13.30;12.03;;;17.20;99.90;;;;;;5062470;28;20935;-80
2021/08/03 05:48:12;;;;;;;16.03;12.43;;;17.20;99.90;;;;;;5065147;28;20453;-79
2021/08/03 05:50:39;;;;;;;22.20;12.43;;;17.20;99.90;;;;;;5062322;28;20464;-82
2021/08/03 05:53:06;;;;;;;14.70;10.93;;;17.20;99.90;;;;;;5054958;28;20497;-80
2021/08/03 05:55:34;;;;;;;11.83;10.63;;;17.30;99.90;;;;;;5054014;28;20450;-79
2021/08/03 05:58:01;;;;;;;13.90;12.20;;;17.30;99.90;;;;;;5062300;28;20460;-79
2021/08/03 06:00:29;;;;;;;12.97;11.70;;;17.30;99.90;;;;;;5047525;28;20526;-79
2021/08/03 06:02:56;;;;;;;13.20;10.93;;;17.30;99.90;;;;;;5053727;28;20475;-79
2021/08/03 06:05:23;;;;;;;14.83;11.67;;;17.30;99.90;;;;;;5054830;28;20466;-80
2021/08/03 06:07:54;;;;;;;13.87;12.37;;;17.30;99.90;;;;;;5057066;28;20460;-81
2021/08/03 06:10:25;;;;;;;14.00;12.50;;;17.30;99.90;;;;;;5053855;28;20451;-80
2021/08/03 06:12:57;;;;;;;13.80;11.60;;;17.40;99.90;;;;;;5055190;28;20499;-80
2021/08/03 06:15:27;;;;;;;12.67;11.10;;;17.40;99.90;;;;;;5063367;28;20478;-82
2021/08/03 06:18:04;;;;;;;14.03;11.57;;;17.40;99.90;;;;;;5059275;28;20468;-81
2021/08/03 06:20:31;;;;;;;15.20;13.60;;;17.40;99.90;;;;;;5064481;28;20460;-81
2021/08/03 06:23:00;;;;;;;14.80;12.00;;;17.40;99.90;;;;;;5060071;28;20462;-81
2021/08/03 06:25:29;;;;;;;17.33;11.73;;;17.40;99.90;;;;;;5057050;28;20462;-79
2021/08/03 06:28:01;;;;;;;34.37;12.83;;;17.40;99.90;;;;;;5058257;28;20461;-80
2021/08/03 06:30:29;;;;;;;13.40;12.00;;;17.50;99.90;;;;;;5055519;28;23155;-80
2021/08/03 06:32:57;;;;;;;17.57;12.97;;;17.50;99.90;;;;;;5055405;28;20846;-80
2021/08/03 06:35:24;;;;;;;12.60;9.93;;;17.50;99.90;;;;;;5056029;28;20457;-79
2021/08/03 06:37:52;;;;;;;12.73;11.40;;;17.50;99.90;;;;;;5061626;28;20466;-80
2021/08/03 06:40:18;;;;;;;15.53;11.17;;;17.50;99.90;;;;;;5084566;28;20483;-71
2021/08/03 06:42:47;;;;;;;12.50;11.30;;;17.50;99.90;;;;;;5100627;28;20466;-70
2021/08/03 06:45:20;;;;;;;13.03;11.77;;;17.50;99.90;;;;;;5092964;28;20939;-70
2021/08/03 06:47:54;;;;;;;15.73;11.80;;;17.60;99.90;;;;;;5089416;28;20782;-69
2021/08/03 06:50:26;;;;;;;15.80;12.47;;;17.60;99.90;;;;;;5095679;28;20447;-70
2021/08/03 06:52:54;;;;;;;13.83;11.63;;;17.70;99.90;;;;;;5096172;28;21013;-70
2021/08/03 06:55:27;;;;;;;18.13;11.73;;;17.70;99.90;;;;;;5101618;28;20975;-70
2021/08/03 06:57:55;;;;;;;12.80;11.60;;;17.80;99.90;;;;;;5098298;28;20555;-70
2021/08/03 07:00:24;;;;;;;12.13;10.87;;;17.80;99.90;;;;;;5101493;28;20486;-71
2021/08/03 07:02:53;;;;;;;13.77;12.30;;;17.80;99.90;;;;;;5099152;28;20463;-70
2021/08/03 07:05:24;;;;;;;12.07;10.87;;;17.90;99.90;;;;;;5096975;28;20456;-70
2021/08/03 07:07:57;;;;;;;14.20;11.43;;;17.90;99.90;;;;;;5099767;28;20992;-70
2021/08/03 07:10:23;;;;;;;15.10;11.63;;;18.00;99.90;;;;;;5093461;28;20455;-70
2021/08/03 07:12:53;;;;;;;13.10;11.23;;;18.00;99.90;;;;;;5100885;28;20484;-70
2021/08/03 07:15:21;;;;;;;13.40;12.10;;;18.00;99.90;;;;;;5097463;28;20547;-70
2021/08/03 07:17:51;;;;;;;16.20;12.53;;;18.10;99.90;;;;;;5097535;28;20983;-70
2021/08/03 07:20:18;;;;;;;14.50;12.10;;;18.10;99.90;;;;;;5103830;28;20520;-70
2021/08/03 07:22:45;;;;;;;17.83;12.43;;;18.10;99.90;;;;;;5101479;28;20503;-71
2021/08/03 07:25:12;;;;;;;13.70;11.47;;;18.20;99.90;;;;;;5105727;28;20505;-71
2021/08/03 07:27:39;;;;;;;12.93;11.60;;;18.20;99.90;;;;;;5102620;28;20550;-70
2021/08/03 07:30:09;;;;;;;16.10;12.17;;;18.20;99.90;;;;;;5100111;28;20462;-70
2021/08/03 07:32:37;;;;;;;15.67;12.63;;;18.30;99.90;;;;;;5106205;28;20567;-71
2021/08/03 07:35:07;;;;;;;13.17;11.77;;;18.30;99.90;;;;;;5105165;28;20454;-70
2021/08/03 07:37:36;;;;;;;13.37;11.97;;;18.30;99.90;;;;;;5099916;28;20456;-70
2021/08/03 07:40:05;;;;;;;11.63;10.63;;;18.40;99.90;;;;;;5101529;28;20478;-70
2021/08/03 07:42:32;;;;;;;12.80;11.40;;;18.40;99.90;;;;;;5104970;28;20459;-70
2021/08/03 07:44:59;;;;;;;12.17;10.87;;;18.40;99.90;;;;;;5102284;28;20947;-70
2021/08/03 07:47:26;;;;;;;11.63;10.37;;;18.50;99.90;;;;;;5104689;28;20480;-70
2021/08/03 07:49:53;;;;;;;19.50;12.03;;;18.50;99.90;;;;;;5098246;28;20450;-70
2021/08/03 07:52:21;;;;;;;354.47;35.33;;;18.50;99.90;;;;;;5094965;28;20454;-71
2021/08/03 07:54:48;;;;;;;166.93;23.20;;;18.50;99.90;;;;;;5094493;28;20463;-70
2021/08/03 07:57:15;;;;;;;202.70;21.70;;;18.50;99.90;;;;;;5097807;28;20453;-69
2021/08/03 07:59:42;;;;;;;23.33;11.90;;;18.60;99.90;;;;;;5099100;28;20462;-70
2021/08/03 08:02:08;;;;;;;18.23;12.33;;;18.60;99.90;;;;;;5102759;28;20452;-70
2021/08/03 08:04:35;;;;;;;11.77;10.40;;;18.60;99.90;;;;;;5102183;28;20451;-70
2021/08/03 08:07:03;;;;;;;10.93;9.80;;;18.60;99.90;;;;;;5100443;28;20505;-70
2021/08/03 08:09:32;;;;;;;11.60;9.57;;;18.70;99.90;;;;;;5100955;28;20496;-70
2021/08/03 08:11:59;;;;;;;12.50;10.07;;;18.70;99.90;;;;;;5093250;28;20457;-70
2021/08/03 08:14:26;;;;;;;10.97;9.97;;;18.70;99.90;;;;;;5100751;28;20481;-70
2021/08/03 08:16:53;;;;;;;12.70;10.07;;;18.70;99.90;;;;;;5115628;27;20491;-70
2021/08/03 08:19:20;;;;;;;10.53;9.53;;;18.70;99.90;;;;;;5090828;28;21360;-70
2021/08/03 08:21:46;;;;;;;10.97;9.40;;;18.70;99.90;;;;;;5091861;28;20465;-70
2021/08/03 08:24:13;;;;;;;13.33;10.10;;;18.80;99.90;;;;;;5097241;28;20930;-69
2021/08/03 08:26:42;;;;;;;10.70;9.60;;;18.80;99.90;;;;;;5099600;28;20947;-70
2021/08/03 08:29:08;;;;;;;10.00;9.00;;;18.80;99.90;;;;;;5101030;28;20453;-70
2021/08/03 08:31:35;;;;;;;10.90;9.20;;;18.90;99.90;;;;;;5089972;28;20468;-70
2021/08/03 08:34:03;;;;;;;14.20;9.40;;;19.00;99.90;;;;;;5094517;28;20474;-69
2021/08/03 08:36:30;;;;;;;9.80;8.80;;;19.00;99.90;;;;;;5094767;28;20467;-72
2021/08/03 08:38:57;;;;;;;8.70;7.87;;;19.10;99.90;;;;;;5097370;28;21032;-70
2021/08/03 08:41:24;;;;;;;8.90;8.00;;;19.10;99.90;;;;;;5095994;28;20462;-70
2021/08/03 08:43:53;;;;;;;8.73;7.93;;;19.20;99.90;;;;;;5095120;28;20492;-70
2021/08/03 08:46:20;;;;;;;14.00;8.70;;;19.40;99.90;;;;;;5102205;28;20790;-70
2021/08/03 08:48:49;;;;;;;9.70;8.80;;;19.40;99.90;;;;;;5093390;28;20518;-70
2021/08/03 08:51:16;;;;;;;10.70;9.30;;;19.50;99.90;;;;;;5092531;28;20467;-70
2021/08/03 08:53:43;;;;;;;10.47;8.30;;;19.50;99.90;;;;;;5096493;28;20859;-70
2021/08/03 08:56:11;;;;;;;9.03;8.23;;;19.50;99.90;;;;;;5098699;28;20461;-70
2021/08/03 08:58:38;;;;;;;9.37;8.47;;;19.50;99.90;;;;;;5089778;28;20460;-70
2021/08/03 09:01:06;;;;;;;9.43;8.53;;;19.50;99.90;;;;;;5096080;28;20471;-71
2021/08/03 09:03:33;;;;;;;10.07;8.90;;;19.60;99.90;;;;;;5083809;28;20959;-70
2021/08/03 09:06:02;;;;;;;9.60;7.53;;;19.60;99.90;;;;;;5091562;27;20545;-70
2021/08/03 09:08:36;;;;;;;11.33;9.53;;;19.60;99.90;;;;;;5091228;27;20536;-70
2021/08/03 09:11:10;;;;;;;12.50;8.73;;;19.60;99.90;;;;;;5095976;28;20960;-69
2021/08/03 09:13:53;;;;;;;9.50;8.13;;;19.60;99.90;;;;;;5096779;28;21021;-71
2021/08/03 09:16:22;;;;;;;10.37;8.17;;;19.60;99.90;;;;;;5094472;28;20567;-70
2021/08/03 09:18:49;;;;;;;8.63;7.80;;;19.60;99.90;;;;;;5095028;28;20457;-70
2021/08/03 09:21:21;;;;;;;9.03;8.13;;;19.70;99.90;;;;;;5095914;28;20816;-70
2021/08/03 09:23:50;;;;;;;9.37;7.90;;;19.70;99.90;;;;;;5095322;28;20921;-70
2021/08/03 09:26:19;;;;;;;11.77;8.10;;;19.70;99.90;;;;;;5097276;28;20468;-70
2021/08/03 09:29:03;;;;;;;10.37;8.17;;;19.70;99.90;;;;;;5095822;28;20465;-70
2021/08/03 09:31:33;;;;;;;12.53;7.60;;;19.70;99.90;;;;;;5092820;28;20449;-70
2021/08/03 09:34:01;;;;;;;8.20;7.00;;;19.70;99.90;;;;;;5098847;28;20971;-70
2021/08/03 09:36:49;;;;;;;12.47;7.23;;;19.80;99.90;;;;;;5092034;28;20555;-70
2021/08/03 09:39:36;;;;;;;7.53;6.77;;;19.80;99.90;;;;;;5090876;28;20863;-70
2021/08/03 09:42:06;;;;;;;9.73;7.57;;;19.80;99.90;;;;;;5091761;28;20456;-72
2021/08/03 09:44:33;;;;;;;9.00;6.80;;;19.80;99.90;;;;;;5094383;28;20453;-70
2021/08/03 09:47:01;;;;;;;8.67;6.70;;;19.80;99.90;;;;;;5087648;28;20450;-70
2021/08/03 09:49:38;;;;;;;10.43;6.50;;;19.90;99.90;;;;;;5098438;28;20460;-71
2021/08/03 09:52:07;;;;;;;7.80;7.00;;;19.80;99.90;;;;;;5097636;28;20461;-72
2021/08/03 09:54:35;;;;;;;8.03;6.50;;;19.90;99.90;;;;;;5094230;28;21288;-70
2021/08/03 09:57:03;;;;;;;11.77;7.43;;;19.80;99.90;;;;;;5096527;28;20453;-70
2021/08/03 09:59:36;;;;;;;9.70;8.17;;;19.80;99.90;;;;;;5089514;28;20461;-70
2021/08/03 10:02:05;;;;;;;9.03;8.13;;;19.90;99.90;;;;;;5099926;28;20461;-71
2021/08/03 10:04:33;;;;;;;10.43;8.37;;;19.80;99.90;;;;;;5092089;28;20460;-70
2021/08/03 10:07:00;;;;;;;12.33;8.63;;;19.80;99.90;;;;;;5098307;28;20445;-70
2021/08/03 10:09:28;;;;;;;11.17;9.00;;;19.80;99.90;;;;;;5092268;28;20489;-69
2021/08/03 10:11:56;;;;;;;11.70;9.13;;;19.70;99.90;;;;;;5094860;28;20952;-70
2021/08/03 10:14:23;;;;;;;13.10;9.93;;;19.70;99.90;;;;;;5091368;28;20507;-69
2021/08/03 10:16:53;;;;;;;10.70;9.50;;;19.70;99.90;;;;;;5098998;28;20838;-69
2021/08/03 10:19:24;;;;;;;10.10;8.10;;;19.70;99.90;;;;;;5095388;28;20545;-69
2021/08/03 10:22:03;;;;;;;8.97;7.20;;;19.70;99.90;;;;;;5098432;28;20983;-70
2021/08/03 10:24:32;;;;;;;8.17;7.37;;;19.60;99.90;;;;;;5097634;28;20464;-70
2021/08/03 10:27:07;;;;;;;8.40;7.60;;;19.60;99.90;;;;;;5090189;28;20530;-71
2021/08/03 10:29:38;;;;;;;9.27;8.37;;;19.60;99.90;;;;;;5090472;28;20452;-70
2021/08/03 10:32:05;;;;;;;9.70;8.80;;;19.50;99.90;;;;;;5092939;28;20465;-70
2021/08/03 10:35:00;;;;;;;8.70;7.90;;;19.40;99.90;;;;;;5099454;28;20483;-69
2021/08/03 10:38:08;;;;;;;9.47;8.17;;;19.40;99.90;;;;;;5096611;28;20464;-79
2021/08/03 10:41:01;;;;;;;9.17;8.27;;;19.40;99.90;;;;;;5096461;28;20498;-79
2021/08/03 10:43:39;;;;;;;9.67;8.40;;;19.30;99.90;;;;;;5100047;28;20467;-79
2021/08/03 10:46:38;;;;;;;9.13;7.90;;;19.30;99.90;;;;;;5094973;28;20463;-80
2021/08/03 10:49:06;;;;;;;9.10;8.20;;;19.20;99.90;;;;;;5101296;28;20445;-79
2021/08/03 10:51:41;;;;;;;9.47;8.57;;;19.20;99.90;;;;;;5099364;28;20464;-82
2021/08/03 10:54:11;;;;;;;8.80;7.63;;;19.20;99.90;;;;;;5100022;28;20492;-81
2021/08/03 10:57:18;;;;;;;8.23;6.37;;;19.20;99.90;;;;;;5099379;28;20528;-79
2021/08/03 10:59:46;;;;;;;7.67;7.07;;;19.20;99.90;;;;;;5094041;27;20453;-82
2021/08/03 11:02:57;;;;;;;8.37;6.93;;;19.20;99.90;;;;;;5102573;28;20449;-79
2021/08/03 11:05:32;;;;;;;8.17;7.47;;;19.30;99.90;;;;;;5096887;28;20456;-80
2021/08/03 11:08:42;;;;;;;16.80;15.13;;;19.30;99.90;;;;;;5096631;28;20463;-80
2021/08/03 11:11:21;;;;;;;22.00;16.60;;;19.30;99.90;;;;;;5095372;28;21116;-83
2021/08/03 11:13:49;;;;;;;32.50;19.83;;;19.30;99.90;;;;;;5094897;28;20477;-80
2021/08/03 11:16:45;;;;;;;46.60;24.93;;;19.30;99.90;;;;;;5099462;28;20460;-82
2021/08/03 11:19:35;;;;;;;31.10;18.40;;;19.40;99.90;;;;;;5093099;28;20952;-84
2021/08/03 11:22:06;;;;;;;17.23;12.43;;;19.40;99.90;;;;;;5091137;28;20464;-80
2021/08/03 11:24:38;;;;;;;24.10;16.87;;;19.50;99.90;;;;;;5096624;28;20549;-83
2021/08/03 11:27:08;;;;;;;22.40;16.50;;;19.60;99.90;;;;;;5091661;28;20901;-80
2021/08/03 11:29:37;;;;;;;30.80;22.37;;;19.60;99.90;;;;;;5090709;28;20611;-79
2021/08/03 11:32:05;;;;;;;43.13;31.53;;;19.70;99.90;;;;;;5099092;28;20463;-80
2021/08/03 11:34:34;;;;;;;24.30;20.40;;;19.70;99.90;;;;;;5097014;28;20489;-82
2021/08/03 11:37:05;;;;;;;9.77;8.90;;;19.70;99.90;;;;;;5098860;28;20455;-80
2021/08/03 11:39:34;;;;;;;9.60;8.23;;;19.80;99.90;;;;;;5097891;28;20531;-80
2021/08/03 11:42:01;;;;;;;10.10;8.97;;;19.80;99.90;;;;;;5096621;28;20809;-80
2021/08/03 11:44:30;;;;;;;10.23;8.80;;;19.80;99.90;;;;;;5096946;28;20473;-80
2021/08/03 11:46:59;;;;;;;9.53;8.73;;;19.80;99.90;;;;;;5100373;28;20458;-80
2021/08/03 11:49:36;;;;;;;9.20;8.30;;;19.70;99.90;;;;;;5098227;28;20460;-83
2021/08/03 11:52:21;;;;;;;9.33;8.43;;;19.70;99.90;;;;;;5094030;28;20464;-80
2021/08/03 11:54:51;;;;;;;9.57;8.67;;;19.60;99.90;;;;;;5086313;28;20492;-80
2021/08/03 11:57:30;;;;;;;8.57;7.60;;;19.60;99.90;;;;;;5096089;28;20458;-80
2021/08/03 12:00:05;;;;;;;10.60;8.30;;;19.50;99.90;;;;;;5101761;27;20975;-80
2021/08/03 12:02:32;;;;;;;9.57;8.67;;;19.50;99.90;;;;;;5098514;28;20798;-80
2021/08/03 12:05:20;;;;;;;9.27;8.23;;;19.50;99.90;;;;;;5095322;28;20495;-80
2021/08/03 12:07:51;;;;;;;9.07;8.10;;;19.50;99.90;;;;;;5088062;28;21396;-83
2021/08/03 12:10:18;;;;;;;11.17;8.50;;;19.50;99.90;;;;;;5094208;28;20465;-83
2021/08/03 12:12:47;;;;;;;8.63;7.80;;;19.40;99.90;;;;;;5100522;28;20942;-81
2021/08/03 12:15:18;;;;;;;9.40;8.10;;;19.40;99.90;;;;;;5101018;28;21111;-80
2021/08/03 12:17:46;;;;;;;10.93;8.80;;;19.30;99.90;;;;;;5099936;28;20783;-86
2021/08/03 12:20:29;;;;;;;10.23;9.40;;;19.30;99.90;;;;;;5096394;28;20546;-82
2021/08/03 12:23:08;;;;;;;10.13;9.13;;;19.30;99.90;;;;;;5095962;28;20818;-82
2021/08/03 12:25:46;;;;;;;9.07;8.23;;;19.30;99.90;;;;;;5093685;28;21001;-81
2021/08/03 12:28:14;;;;;;;10.10;9.17;;;19.30;99.90;;;;;;5091528;28;20468;-80
2021/08/03 12:30:42;;;;;;;8.43;7.63;;;19.30;99.90;;;;;;5102257;28;20464;-82
2021/08/03 12:33:27;;;;;;;9.87;8.87;;;19.30;99.90;;;;;;5096458;28;20817;-80
2021/08/03 12:36:05;;;;;;;10.10;8.97;;;19.20;99.90;;;;;;5092925;28;20477;-80
2021/08/03 12:38:33;;;;;;;11.40;9.40;;;19.10;99.90;;;;;;5094760;28;20457;-81
2021/08/03 12:41:13;;;;;;;7.83;7.03;;;19.20;99.90;;;;;;5094193;28;20476;-80
2021/08/03 12:43:40;;;;;;;8.93;7.73;;;19.20;99.90;;;;;;5092077;28;20464;-81
2021/08/03 12:46:09;;;;;;;8.57;7.73;;;19.20;99.90;;;;;;5089649;28;20461;-82
2021/08/03 12:48:38;;;;;;;9.10;8.10;;;19.20;99.90;;;;;;5102064;28;20484;-82
2021/08/03 12:51:05;;;;;;;9.73;8.70;;;19.20;99.90;;;;;;5097592;28;20457;-81
2021/08/03 12:53:33;;;;;;;10.93;9.63;;;19.30;99.90;;;;;;5092667;28;20465;-81